Time;durP1;ratioP1;P1;durP2;ratioP2;P2;SDS_P1;SDS_P2;PMS_P1;PMS_P2;Temp;Humidity;BMP_temperature;BMP_pressure;BME280_temperature;BME280_humidity;BME280_pressure;Samples;Min_cycle;Max_cycle;Signal;HPM_P1;HPM_P2
2022/04/04 00:01:02;;;;;;;10.52;6.78;;;;;;;1.48;77.88;101930.78;5019693;28;20026;-78
2022/04/04 00:03:28;;;;;;;11.70;6.53;;;;;;;1.47;78.80;101920.38;5011750;28;20015;-78
2022/04/04 00:05:53;;;;;;;11.77;7.20;;;;;;;1.46;78.37;101921.16;5018781;28;20033;-78
2022/04/04 00:08:18;;;;;;;10.38;6.70;;;;;;;1.45;78.85;101920.25;5018887;28;20034;-78
2022/04/04 00:10:44;;;;;;;11.07;6.80;;;;;;;1.44;78.46;101913.31;5018110;28;20060;-78
2022/04/04 00:13:09;;;;;;;11.93;7.05;;;;;;;1.44;77.75;101913.31;5017868;28;20028;-78
2022/04/04 00:15:34;;;;;;;12.77;8.05;;;;;;;1.44;78.33;101907.31;5022175;28;20025;-78
2022/04/04 00:18:10;;;;;;;12.45;7.40;;;;;;;1.42;78.48;101902.06;5019678;28;20200;-77
2022/04/04 00:20:36;;;;;;;12.57;7.43;;;;;;;1.41;79.01;101904.50;5018560;28;20026;-77
2022/04/04 00:23:02;;;;;;;12.07;7.47;;;;;;;1.40;79.03;101901.03;5014531;28;20030;-78
2022/04/04 00:25:27;;;;;;;11.60;7.32;;;;;;;1.41;79.03;101899.38;5016205;28;20036;-77
2022/04/04 00:27:52;;;;;;;12.95;8.27;;;;;;;1.41;78.53;101892.56;5015643;28;20038;-78
2022/04/04 00:30:18;;;;;;;13.25;8.13;;;;;;;1.43;78.61;101896.13;5017074;28;20038;-78
2022/04/04 00:32:43;;;;;;;11.45;7.30;;;;;;;1.42;78.76;101891.78;5020248;28;20025;-78
2022/04/04 00:35:09;;;;;;;12.27;7.45;;;;;;;1.43;78.66;101890.09;5008260;28;20041;-78
2022/04/04 00:37:37;;;;;;;15.55;7.65;;;;;;;1.42;78.18;101881.50;5011329;28;20257;-78
2022/04/04 00:40:07;;;;;;;14.85;7.78;;;;;;;1.39;78.81;101881.25;5008174;28;20030;-77
2022/04/04 00:42:32;;;;;;;13.18;7.68;;;;;;;1.36;78.36;101878.44;5013909;28;20044;-78
2022/04/04 00:44:58;;;;;;;12.25;8.10;;;;;;;1.37;78.73;101876.00;5018704;28;20280;-78
2022/04/04 00:47:23;;;;;;;13.65;7.75;;;;;;;1.36;78.76;101868.16;5017790;28;20014;-78
2022/04/04 00:49:49;;;;;;;12.57;7.65;;;;;;;1.38;78.86;101867.53;5009006;28;20202;-78
2022/04/04 00:52:14;;;;;;;15.23;7.82;;;;;;;1.38;78.54;101869.22;5016810;28;20029;-78
2022/04/04 00:54:40;;;;;;;12.10;7.90;;;;;;;1.37;78.08;101865.72;5019177;28;20081;-78
2022/04/04 00:57:05;;;;;;;14.18;8.43;;;;;;;1.36;78.26;101857.91;5019310;28;20318;-78
2022/04/04 00:59:31;;;;;;;14.43;8.07;;;;;;;1.37;78.21;101854.56;5020459;28;20029;-78
2022/04/04 01:01:57;;;;;;;12.95;7.70;;;;;;;1.37;78.60;101855.44;5018038;28;20021;-78
2022/04/04 01:04:22;;;;;;;13.80;8.40;;;;;;;1.37;78.75;101849.44;5017834;28;20029;-78
2022/04/04 01:06:47;;;;;;;13.75;8.65;;;;;;;1.38;78.91;101846.09;5016975;28;20044;-78
2022/04/04 01:09:14;;;;;;;15.25;8.10;;;;;;;1.35;78.55;101846.75;5009636;28;20025;-77
2022/04/04 01:12:09;;;;;;;13.88;8.70;;;;;;;1.32;78.86;101836.25;5018504;28;20286;-78
2022/04/04 01:14:36;;;;;;;13.48;8.00;;;;;;;1.32;78.66;101832.78;5012600;28;20176;-77
2022/04/04 01:17:03;;;;;;;12.05;7.68;;;;;;;1.31;79.04;101821.59;5015610;28;20084;-77
2022/04/04 01:19:28;;;;;;;14.52;8.30;;;;;;;1.33;78.77;101821.72;5011711;28;20030;-78
2022/04/04 01:21:53;;;;;;;13.07;7.80;;;;;;;1.31;78.78;101808.78;5006977;28;20307;-78
2022/04/04 01:24:19;;;;;;;12.20;7.63;;;;;;;1.32;78.79;101817.38;5014049;28;20030;-77
2022/04/04 01:26:49;;;;;;;13.25;7.75;;;;;;;1.31;78.25;101800.19;5019052;28;20029;-78
2022/04/04 01:29:14;;;;;;;16.05;8.70;;;;;;;1.29;78.26;101804.28;5015365;28;20068;-78
2022/04/04 01:31:39;;;;;;;14.68;8.70;;;;;;;1.30;77.60;101800.94;5012573;28;20038;-78
2022/04/04 01:34:05;;;;;;;13.23;7.72;;;;;;;1.30;78.05;101795.81;5017230;28;20021;-78
2022/04/04 01:36:30;;;;;;;13.43;7.90;;;;;;;1.30;77.61;101794.13;5010421;28;20034;-78
2022/04/04 01:38:55;;;;;;;13.90;7.80;;;;;;;1.33;77.98;101785.78;5013610;28;20018;-78
2022/04/04 01:41:21;;;;;;;13.40;7.95;;;;;;;1.34;77.28;101778.19;5014400;28;20018;-78
2022/04/04 01:43:46;;;;;;;12.77;8.05;;;;;;;1.35;77.37;101772.28;5014560;28;20050;-79
2022/04/04 01:46:45;;;;;;;14.85;8.15;;;;;;;1.39;76.91;101778.53;5016106;28;20014;-78
2022/04/04 01:49:05;;;;;;;14.15;8.05;;;;;;;1.37;77.20;101763.00;5012922;28;20279;-78
2022/04/04 01:51:33;;;;;;;13.32;7.88;;;;;;;1.40;77.52;101757.22;5013777;28;20022;-78
2022/04/04 01:53:58;;;;;;;12.43;7.50;;;;;;;1.39;77.48;101758.91;5009252;28;20022;-78
2022/04/04 01:56:24;;;;;;;13.60;8.20;;;;;;;1.41;76.57;101745.28;5017880;28;20097;-78
2022/04/04 01:58:50;;;;;;;14.57;8.77;;;;;;;1.41;76.75;101753.00;5017194;28;20018;-78
2022/04/04 02:01:21;;;;;;;13.05;7.40;;;;;;;1.39;77.01;101740.00;5020640;28;20089;-78
2022/04/04 02:03:55;;;;;;;13.25;8.25;;;;;;;1.39;77.19;101734.88;5016975;28;20030;-78
2022/04/04 02:06:21;;;;;;;13.43;8.23;;;;;;;1.38;77.12;101727.97;5024184;28;20367;-78
2022/04/04 02:08:47;;;;;;;14.35;7.97;;;;;;;1.37;76.66;101723.63;5024037;28;20025;-78
2022/04/04 02:11:15;;;;;;;13.10;8.02;;;;;;;1.36;76.81;101725.31;5023307;28;20025;-78
2022/04/04 02:13:41;;;;;;;15.25;8.13;;;;;;;1.35;76.80;101717.47;5015149;28;20045;-78
2022/04/04 02:16:08;;;;;;;13.55;8.27;;;;;;;1.35;76.79;101720.94;5013125;28;20021;-78
2022/04/04 02:18:34;;;;;;;13.57;7.57;;;;;;;1.36;77.07;101703.84;5008454;28;20225;-77
2022/04/04 02:21:00;;;;;;;13.50;8.00;;;;;;;1.36;76.97;101714.13;5022127;28;20065;-78
2022/04/04 02:23:26;;;;;;;13.75;8.05;;;;;;;1.38;77.04;101704.88;5009576;28;20022;-78
2022/04/04 02:25:57;;;;;;;13.88;7.72;;;;;;;1.36;76.53;101704.75;5018171;28;20094;-78
2022/04/04 02:28:24;;;;;;;13.55;8.10;;;;;;;1.38;77.05;101699.72;5010742;28;20056;-78
2022/04/04 02:30:50;;;;;;;13.20;7.63;;;;;;;1.39;77.59;101696.34;5032611;28;20018;-78
2022/04/04 02:33:17;;;;;;;11.90;7.18;;;;;;;1.40;76.66;101693.03;5012179;28;20022;-78
2022/04/04 02:35:43;;;;;;;13.13;7.68;;;;;;;1.41;77.15;101684.53;5016126;28;20269;-77
2022/04/04 02:38:09;;;;;;;13.48;7.65;;;;;;;1.43;77.50;101675.28;5018057;28;20037;-78
2022/04/04 02:40:35;;;;;;;11.35;7.07;;;;;;;1.48;76.88;101676.53;5019996;28;20022;-78
2022/04/04 02:43:01;;;;;;;12.43;7.20;;;;;;;1.49;76.96;101672.25;5015393;28;20092;-78
2022/04/04 02:45:27;;;;;;;14.20;7.50;;;;;;;1.50;77.25;101667.25;5019763;28;20046;-78
2022/04/04 02:47:53;;;;;;;12.00;7.60;;;;;;;1.50;76.72;101659.53;5018043;28;20097;-78
2022/04/04 02:50:18;;;;;;;12.93;7.15;;;;;;;1.53;76.63;101661.44;5020401;28;20176;-78
2022/04/04 02:52:44;;;;;;;13.80;7.78;;;;;;;1.54;76.56;101658.97;5021323;28;20093;-78
2022/04/04 02:57:57;;;;;;;11.65;7.22;;;;;;;1.56;77.21;101635.97;5018790;28;20080;-78
2022/04/04 03:00:24;;;;;;;12.05;7.00;;;;;;;1.55;77.53;101640.22;5019632;28;20068;-78
2022/04/04 03:02:51;;;;;;;13.00;7.07;;;;;;;1.54;76.92;101628.16;5019806;28;20033;-78
2022/04/04 03:05:16;;;;;;;14.82;7.35;;;;;;;1.56;77.12;101624.03;5019414;28;20017;-79
2022/04/04 03:07:42;;;;;;;12.65;7.07;;;;;;;1.56;77.47;101612.84;5019010;28;20224;-79
2022/04/04 03:10:09;;;;;;;13.60;7.47;;;;;;;1.58;76.81;101613.88;5016641;28;20065;-78
2022/04/04 03:12:45;;;;;;;11.10;6.90;;;;;;;1.58;77.15;101605.25;5016789;28;20237;-78
2022/04/04 03:15:17;;;;;;;13.13;7.00;;;;;;;1.60;77.72;101606.28;5019807;28;20268;-78
2022/04/04 03:17:44;;;;;;;12.60;7.25;;;;;;;1.59;77.85;101600.22;5019744;28;20044;-78
2022/04/04 03:20:12;;;;;;;13.00;7.22;;;;;;;1.62;77.39;101597.00;5016591;28;20022;-79
2022/04/04 03:22:40;;;;;;;10.60;6.55;;;;;;;1.64;77.68;101588.63;5020377;28;20026;-79
2022/04/04 03:25:08;;;;;;;12.85;7.38;;;;;;;1.66;77.64;101586.16;5014256;28;20126;-79
2022/04/04 03:27:34;;;;;;;13.57;7.20;;;;;;;1.66;77.56;101581.91;5012099;28;20025;-79
2022/04/04 03:29:59;;;;;;;12.00;6.68;;;;;;;1.67;77.77;101573.44;5013000;28;20022;-79
2022/04/04 03:32:25;;;;;;;11.35;7.10;;;;;;;1.70;77.02;101575.34;5020498;28;20110;-79
2022/04/04 03:34:50;;;;;;;16.38;7.45;;;;;;;1.73;77.87;101572.97;5011112;28;20029;-79
2022/04/04 03:37:16;;;;;;;12.55;6.85;;;;;;;1.73;77.73;101567.84;5020576;28;20030;-79
2022/04/04 03:39:41;;;;;;;12.90;7.43;;;;;;;1.74;77.54;101569.63;5012282;28;20034;-78
2022/04/04 03:42:07;;;;;;;12.95;7.22;;;;;;;1.74;77.44;101559.34;5016353;28;20029;-79
2022/04/04 03:44:32;;;;;;;12.73;6.57;;;;;;;1.76;77.74;101554.31;5020351;28;20013;-79
2022/04/04 03:46:58;;;;;;;13.05;7.13;;;;;;;1.78;77.98;101547.59;5010786;28;20090;-78
2022/04/04 03:49:23;;;;;;;11.38;6.80;;;;;;;1.79;77.92;101545.13;5014216;28;20022;-79
2022/04/04 03:51:49;;;;;;;12.20;6.95;;;;;;;1.79;77.97;101544.25;5018706;28;20068;-78
2022/04/04 03:54:14;;;;;;;12.32;7.05;;;;;;;1.80;78.15;101538.34;5018711;28;20009;-78
2022/04/04 03:56:39;;;;;;;14.30;7.55;;;;;;;1.81;78.51;101535.88;5015020;28;20299;-78
2022/04/04 03:59:05;;;;;;;12.80;6.90;;;;;;;1.84;77.84;101530.03;5017389;28;20272;-78
2022/04/04 04:01:30;;;;;;;12.70;7.05;;;;;;;1.85;77.99;101526.69;5011477;28;20022;-79
2022/04/04 04:03:56;;;;;;;13.65;6.90;;;;;;;1.86;78.05;101521.66;5009813;28;20037;-79
2022/04/04 04:06:22;;;;;;;13.30;6.88;;;;;;;1.88;78.24;101511.47;5013436;28;20059;-79
2022/04/04 04:08:47;;;;;;;12.63;6.97;;;;;;;1.88;78.23;101514.97;5022360;28;20049;-79
2022/04/04 04:11:15;;;;;;;13.38;7.13;;;;;;;1.89;78.39;101509.03;5007843;28;20269;-78
2022/04/04 04:13:44;;;;;;;12.98;7.38;;;;;;;1.91;78.44;101507.47;5015453;28;20025;-78
2022/04/04 04:16:12;;;;;;;11.38;7.03;;;;;;;1.92;78.86;101498.06;5017341;28;20030;-79
2022/04/04 04:18:38;;;;;;;13.05;7.25;;;;;;;1.95;78.35;101502.53;5022103;28;20280;-78
2022/04/04 04:21:04;;;;;;;13.00;7.20;;;;;;;1.96;78.54;101494.03;5012883;28;20029;-79
2022/04/04 04:23:29;;;;;;;13.60;7.97;;;;;;;1.97;78.52;101486.44;5019021;28;20064;-78
2022/04/04 04:25:55;;;;;;;12.82;7.32;;;;;;;2.01;78.67;101482.38;5024649;28;20269;-79
2022/04/04 04:28:20;;;;;;;13.13;7.72;;;;;;;2.00;78.72;101471.22;5021382;28;20025;-78
2022/04/04 04:30:46;;;;;;;16.70;8.20;;;;;;;2.03;78.28;101475.69;5018307;28;20022;-79
2022/04/04 04:33:11;;;;;;;13.93;7.90;;;;;;;2.06;78.41;101463.94;5019321;28;20169;-79
2022/04/04 04:35:36;;;;;;;15.68;8.50;;;;;;;2.07;78.66;101464.81;5011876;28;20026;-79
2022/04/04 04:38:02;;;;;;;14.43;8.70;;;;;;;2.11;78.33;101458.22;5016901;28;20005;-78
2022/04/04 04:40:28;;;;;;;14.32;7.95;;;;;;;2.10;79.10;101452.19;5015375;28;20014;-78
2022/04/04 04:42:55;;;;;;;14.13;7.43;;;;;;;2.13;78.25;101443.75;5019161;28;20037;-79
2022/04/04 04:45:21;;;;;;;14.50;8.80;;;;;;;2.14;78.67;101438.72;5016494;28;20257;-78
2022/04/04 04:47:47;;;;;;;14.82;8.93;;;;;;;2.17;78.49;101433.81;5022417;28;20026;-79
2022/04/04 04:50:15;;;;;;;14.43;8.23;;;;;;;2.17;79.22;101432.91;5018130;28;20013;-79
2022/04/04 04:52:42;;;;;;;18.10;9.15;;;;;;;2.22;78.96;101423.84;5019307;28;20102;-79
2022/04/04 04:55:09;;;;;;;17.48;8.95;;;;;;;2.20;79.19;101431.44;5016322;28;20029;-78
2022/04/04 04:57:34;;;;;;;14.50;8.32;;;;;;;2.23;78.92;101420.44;5019380;28;20026;-77
2022/04/04 05:00:03;;;;;;;18.40;8.77;;;;;;;2.25;78.37;101419.78;5018182;28;20010;-78
2022/04/04 05:02:28;;;;;;;15.70;9.05;;;;;;;2.28;78.66;101411.38;5009664;28;20046;-78
2022/04/04 05:04:54;;;;;;;16.40;8.73;;;;;;;2.29;78.80;101409.69;5009852;28;20022;-78
2022/04/04 05:07:20;;;;;;;13.90;9.05;;;;;;;2.31;78.64;101405.56;5023387;28;20027;-78
2022/04/04 05:09:45;;;;;;;18.05;9.63;;;;;;;2.32;79.06;101402.16;5012826;28;20209;-78
2022/04/04 05:12:11;;;;;;;16.55;9.07;;;;;;;2.35;78.86;101399.81;5008220;28;20052;-78
2022/04/04 05:14:37;;;;;;;16.38;9.10;;;;;;;2.37;78.75;101390.53;5013338;28;20026;-78
2022/04/04 05:17:04;;;;;;;17.85;9.90;;;;;;;2.37;78.95;101385.38;5014644;28;20026;-78
2022/04/04 05:19:30;;;;;;;18.73;9.85;;;;;;;2.39;78.65;101376.06;5014159;28;20257;-78
2022/04/04 05:21:55;;;;;;;19.17;10.30;;;;;;;2.42;78.68;101374.59;5005897;28;20030;-78
2022/04/04 05:24:21;;;;;;;21.20;10.13;;;;;;;2.43;78.59;101360.03;5018421;28;20034;-78
2022/04/04 05:26:46;;;;;;;19.73;9.98;;;;;;;2.44;78.73;101359.25;5012172;28;20029;-78
2022/04/04 05:29:12;;;;;;;18.30;10.65;;;;;;;2.47;79.31;101363.72;5021477;28;20298;-77
2022/04/04 05:31:37;;;;;;;18.70;10.15;;;;;;;2.49;78.96;101354.41;5017557;28;20018;-78
2022/04/04 05:34:04;;;;;;;17.27;11.02;;;;;;;2.50;79.09;101354.50;5022655;28;20101;-78
2022/04/04 05:36:31;;;;;;;22.85;11.70;;;;;;;2.55;78.99;101340.28;5017205;28;20024;-78
2022/04/04 05:38:57;;;;;;;23.52;11.60;;;;;;;2.56;79.32;101339.50;5017911;28;20025;-78
2022/04/04 05:41:22;;;;;;;18.23;10.57;;;;;;;2.58;79.15;101342.16;5018727;28;20257;-78
2022/04/04 05:43:48;;;;;;;21.33;11.68;;;;;;;2.60;79.60;101338.00;5015280;28;20048;-78
2022/04/04 05:46:15;;;;;;;23.02;11.55;;;;;;;2.63;79.28;101332.16;5016410;28;20188;-78
2022/04/04 05:48:41;;;;;;;18.23;10.63;;;;;;;2.67;79.28;101327.28;5024862;28;20093;-78
2022/04/04 05:51:06;;;;;;;19.38;11.02;;;;;;;2.69;79.21;101324.81;5015694;28;20284;-78
2022/04/04 05:53:31;;;;;;;23.83;11.65;;;;;;;2.72;78.76;101322.44;5022262;28;20034;-78
2022/04/04 05:55:57;;;;;;;20.33;10.75;;;;;;;2.72;78.41;101320.78;5018235;28;20032;-78
2022/04/04 05:58:22;;;;;;;22.50;11.40;;;;;;;2.76;78.90;101303.81;5013935;28;20018;-78
2022/04/04 06:00:48;;;;;;;20.10;11.45;;;;;;;2.77;78.84;101305.63;5017266;28;20037;-78
2022/04/04 06:03:14;;;;;;;22.60;11.57;;;;;;;2.79;78.12;101309.16;5014798;28;20037;-78
2022/04/04 06:05:39;;;;;;;19.40;10.75;;;;;;;2.82;78.45;101306.78;5032405;28;20025;-78
2022/04/04 06:08:05;;;;;;;19.55;10.38;;;;;;;2.84;78.10;101302.63;5022333;28;20083;-78
2022/04/04 06:10:30;;;;;;;22.67;11.93;;;;;;;2.85;78.02;101299.25;5020217;28;20252;-78
2022/04/04 06:12:55;;;;;;;22.30;12.25;;;;;;;2.88;78.29;101284.00;5015895;28;20223;-78
2022/04/04 06:15:20;;;;;;;21.63;11.32;;;;;;;2.93;77.56;101290.31;5021808;28;20092;-78
2022/04/04 06:17:47;;;;;;;23.77;11.75;;;;;;;3.02;76.82;101283.97;5017010;28;20038;-78
2022/04/04 06:20:12;;;;;;;19.65;11.43;;;;;;;3.03;77.14;101268.59;5018439;28;20254;-77
2022/04/04 06:22:39;;;;;;;22.15;12.23;;;;;;;3.06;77.59;101271.38;5017452;28;20073;-78
2022/04/04 06:25:09;;;;;;;22.15;11.90;;;;;;;3.10;77.08;101268.19;5023784;28;20040;-78
2022/04/04 06:27:35;;;;;;;;;;;;;;;3.16;76.02;101279.63;5014641;28;20014;-78
2022/04/04 06:30:00;;;;;;;24.08;12.18;;;;;;;3.16;76.84;101257.38;5019914;28;19902;-78
2022/04/04 06:32:26;;;;;;;26.08;12.75;;;;;;;3.19;76.35;101260.13;5015389;28;20172;-78
2022/04/04 06:34:52;;;;;;;23.65;12.48;;;;;;;3.22;76.59;101255.16;5017418;28;20188;-78
2022/04/04 06:37:17;;;;;;;25.58;13.00;;;;;;;3.26;76.52;101251.97;5018601;28;20021;-80
2022/04/04 06:39:44;;;;;;;23.42;12.63;;;;;;;3.30;76.70;101253.94;5012401;28;20054;-79
2022/04/04 06:42:09;;;;;;;27.85;13.77;;;;;;;3.35;76.81;101240.44;5022574;28;20033;-79
2022/04/04 06:44:35;;;;;;;24.10;12.98;;;;;;;3.42;76.31;101237.44;5015175;28;20035;-80
2022/04/04 06:47:01;;;;;;;24.55;12.68;;;;;;;3.44;76.35;101236.69;5020241;28;20250;-79
2022/04/04 06:49:26;;;;;;;25.08;13.57;;;;;;;3.51;76.18;101226.78;5020368;28;20014;-79
2022/04/04 06:51:52;;;;;;;26.85;13.45;;;;;;;3.52;76.06;101224.28;5023017;28;20020;-79
2022/04/04 06:54:19;;;;;;;27.67;13.15;;;;;;;3.56;76.00;101233.94;5019152;28;20204;-79
2022/04/04 06:56:46;;;;;;;27.70;13.98;;;;;;;3.59;76.01;101210.97;5013102;28;20299;-80
2022/04/04 06:59:13;;;;;;;26.92;13.10;;;;;;;3.63;75.48;101222.31;5017309;28;20049;-80
2022/04/04 07:01:38;;;;;;;27.33;13.50;;;;;;;3.67;75.86;101218.25;5020587;28;20041;-79
2022/04/04 07:04:04;;;;;;;27.33;13.63;;;;;;;3.71;75.47;101203.03;5024901;28;20227;-80
2022/04/04 07:06:29;;;;;;;26.98;12.95;;;;;;;3.80;75.20;101208.72;5022499;28;20037;-79
2022/04/04 07:08:55;;;;;;;30.15;13.55;;;;;;;3.88;74.93;101203.09;5025112;28;20018;-78
2022/04/04 07:11:20;;;;;;;26.90;13.35;;;;;;;3.95;74.71;101198.41;5024178;28;20017;-78
2022/04/04 07:13:48;;;;;;;25.60;13.32;;;;;;;4.05;74.41;101189.47;5022792;28;20026;-78
2022/04/04 07:16:14;;;;;;;28.58;14.13;;;;;;;4.09;73.95;101180.22;5019845;28;20031;-78
2022/04/04 07:18:39;;;;;;;25.92;13.15;;;;;;;4.12;73.97;101182.97;5024500;28;20105;-78
2022/04/04 07:21:05;;;;;;;30.55;13.73;;;;;;;4.14;74.25;101171.03;5022856;28;20279;-78
2022/04/04 07:23:30;;;;;;;27.90;13.38;;;;;;;4.17;73.53;101154.03;5024893;28;20026;-78
2022/04/04 07:25:55;;;;;;;28.30;12.80;;;;;;;4.19;73.71;101159.28;5022104;28;20044;-78
2022/04/04 07:28:22;;;;;;;30.05;14.00;;;;;;;4.21;73.26;101142.19;5024874;28;20029;-78
2022/04/04 07:30:49;;;;;;;27.55;13.75;;;;;;;4.23;73.54;101138.03;5024776;28;20026;-78
2022/04/04 07:33:17;;;;;;;27.67;13.07;;;;;;;4.26;73.41;101145.91;5022941;28;20017;-78
2022/04/04 07:35:43;;;;;;;30.70;13.07;;;;;;;4.29;73.30;101140.91;5024234;28;20076;-78
2022/04/04 07:38:12;;;;;;;32.17;14.07;;;;;;;4.33;73.15;101139.38;5025592;28;20037;-80
2022/04/04 07:40:38;;;;;;;34.17;16.83;;;;;;;4.36;73.09;101139.56;5025719;28;20014;-80
2022/04/04 07:43:03;;;;;;;30.20;14.00;;;;;;;4.38;73.08;101134.50;5025291;28;20154;-80
2022/04/04 07:45:30;;;;;;;29.83;14.05;;;;;;;4.42;73.20;101131.25;5024661;28;20018;-80
2022/04/04 07:47:55;;;;;;;28.42;13.52;;;;;;;4.45;73.12;101121.97;5022298;28;20341;-81
2022/04/04 07:50:21;;;;;;;28.33;14.27;;;;;;;4.48;72.86;101121.25;5021611;28;20014;-80
2022/04/04 07:52:47;;;;;;;32.03;14.13;;;;;;;4.49;73.29;101123.94;5024512;28;20009;-80
2022/04/04 07:55:13;;;;;;;33.95;14.52;;;;;;;4.52;73.86;101113.75;5023448;28;20044;-81
2022/04/04 07:57:39;;;;;;;32.15;15.70;;;;;;;4.56;73.40;101101.88;5024998;28;20268;-80
2022/04/04 08:00:07;;;;;;;30.17;14.52;;;;;;;4.59;72.74;101099.50;5022151;28;20059;-81
2022/04/04 08:02:33;;;;;;;31.52;15.05;;;;;;;4.62;73.24;101089.31;5021572;28;20025;-80
2022/04/04 08:04:58;;;;;;;26.55;14.18;;;;;;;4.68;73.10;101089.63;5024416;28;20021;-80
2022/04/04 08:07:23;;;;;;;28.48;14.57;;;;;;;4.74;73.01;101086.47;5022248;28;20030;-80
2022/04/04 08:09:48;;;;;;;31.23;15.65;;;;;;;4.80;72.06;101073.00;5023156;28;20356;-80
2022/04/04 08:12:14;;;;;;;31.67;14.95;;;;;;;4.86;72.65;101081.03;5023700;28;20045;-81
2022/04/04 08:14:39;;;;;;;34.13;15.23;;;;;;;4.96;71.85;101069.50;5022883;28;20033;-79
2022/04/04 08:17:05;;;;;;;36.03;15.57;;;;;;;5.01;71.77;101066.34;5023687;28;20038;-78
2022/04/04 08:19:32;;;;;;;33.75;15.40;;;;;;;5.04;71.30;101063.91;5023585;28;20056;-80
2022/04/04 08:21:58;;;;;;;30.88;14.88;;;;;;;5.10;71.52;101062.41;5023189;28;20044;-81
2022/04/04 08:24:23;;;;;;;31.90;15.05;;;;;;;5.18;70.89;101054.22;5024132;28;20025;-80
2022/04/04 08:26:49;;;;;;;31.42;15.48;;;;;;;5.29;70.13;101053.88;5022311;28;20026;-81
2022/04/04 08:29:14;;;;;;;32.05;14.27;;;;;;;5.28;70.87;101052.97;5023828;28;20275;-80
2022/04/04 08:31:40;;;;;;;30.20;13.45;;;;;;;5.33;70.37;101054.09;5024467;28;20096;-82
2022/04/04 08:34:05;;;;;;;33.58;15.02;;;;;;;5.43;69.14;101037.34;5023174;28;20010;-80
2022/04/04 08:36:31;;;;;;;30.40;13.57;;;;;;;5.48;69.10;101024.63;5023516;28;20093;-78
2022/04/04 08:38:56;;;;;;;31.05;14.25;;;;;;;5.53;68.93;101031.78;5022267;28;20010;-78
2022/04/04 08:41:22;;;;;;;33.50;14.65;;;;;;;5.63;68.41;101008.94;5023039;28;20044;-78
2022/04/04 08:43:51;;;;;;;30.50;14.05;;;;;;;5.70;68.22;101017.06;5020161;28;20266;-78
2022/04/04 08:46:17;;;;;;;28.48;13.07;;;;;;;5.74;68.28;101018.09;5019761;28;20068;-79
2022/04/04 08:48:43;;;;;;;30.52;13.15;;;;;;;5.84;67.56;101003.88;5019171;28;20086;-78
2022/04/04 08:51:09;;;;;;;34.55;12.63;;;;;;;5.90;67.42;101011.91;5019516;28;20025;-78
2022/04/04 08:53:38;;;;;;;33.63;14.32;;;;;;;5.96;67.02;101007.00;5021915;28;20025;-71
2022/04/04 08:56:04;;;;;;;;;;;;;;;6.02;66.80;100991.78;5022280;28;20056;-71
2022/04/04 08:58:30;;;;;;;34.80;13.60;;;;;;;5.93;67.62;101004.28;5022183;28;19920;-70
2022/04/04 09:00:56;;;;;;;40.47;15.48;;;;;;;5.92;67.73;101010.28;5023083;28;20273;-71
2022/04/04 09:03:23;;;;;;;34.00;14.48;;;;;;;5.93;67.55;100988.78;5022054;28;20033;-70
2022/04/04 09:05:59;;;;;;;36.00;15.55;;;;;;;5.91;68.07;101005.94;5022720;28;20037;-70
2022/04/04 09:08:26;;;;;;;36.13;15.07;;;;;;;5.88;68.10;100985.09;5022460;28;20030;-70
2022/04/04 09:10:56;;;;;;;34.72;14.25;;;;;;;5.88;67.76;100990.25;5023389;28;20084;-70
2022/04/04 09:13:25;;;;;;;30.88;15.38;;;;;;;5.85;68.56;100979.78;5023880;28;20188;-70
2022/04/04 09:16:01;;;;;;;36.38;15.98;;;;;;;5.90;68.45;100975.72;5023352;28;20031;-70
2022/04/04 09:18:35;;;;;;;37.47;16.83;;;;;;;5.87;69.66;100978.16;5022111;28;20025;-72
2022/04/04 09:21:01;;;;;;;39.55;16.88;;;;;;;5.84;69.96;100983.22;5022224;28;20021;-70
2022/04/04 09:23:44;;;;;;;38.50;16.35;;;;;;;5.83;70.00;100984.00;5023103;28;20025;-70
2022/04/04 09:26:32;;;;;;;33.60;14.77;;;;;;;5.93;69.75;100970.66;5010438;28;20018;-71
2022/04/04 09:29:02;;;;;;;36.53;17.23;;;;;;;5.85;70.00;100970.34;5023100;28;20022;-70
2022/04/04 09:31:28;;;;;;;35.65;15.90;;;;;;;5.82;70.23;100962.44;5022687;28;20080;-70
2022/04/04 09:33:59;;;;;;;38.20;17.08;;;;;;;5.78;71.59;100957.97;5018404;28;20057;-78
2022/04/04 09:36:24;;;;;;;38.70;17.02;;;;;;;5.80;71.75;100956.31;5023610;28;20032;-78
2022/04/04 09:39:03;;;;;;;34.95;16.88;;;;;;;5.78;71.97;100965.72;5016788;28;20545;-79
2022/04/04 09:41:29;;;;;;;;;;;;;;;5.79;71.07;100956.25;5020866;28;20026;-78
2022/04/04 09:44:01;;;;;;;42.88;17.52;;;;;;;5.74;73.22;100951.75;5019775;28;19939;-77
2022/04/04 09:46:37;;;;;;;42.38;16.77;;;;;;;5.68;73.93;100946.31;5020760;28;20084;-82
2022/04/04 09:49:03;;;;;;;38.92;17.25;;;;;;;5.74;74.01;100950.88;5021983;28;20018;-82
2022/04/04 09:51:44;;;;;;;40.75;17.73;;;;;;;5.63;74.76;100942.63;5014463;28;20588;-81
2022/04/04 09:54:24;;;;;;;38.72;18.05;;;;;;;5.64;74.52;100944.41;5021243;28;20021;-81
2022/04/04 09:56:56;;;;;;;36.35;16.63;;;;;;;5.61;74.98;100948.56;5017621;28;20028;-79
2022/04/04 09:59:21;;;;;;;36.97;15.23;;;;;;;5.61;74.52;100939.09;5019863;28;20318;-80
2022/04/04 10:01:47;;;;;;;38.72;18.67;;;;;;;5.58;74.99;100939.84;5018826;28;20037;-82
2022/04/04 10:04:13;;;;;;;41.20;17.90;;;;;;;5.58;75.26;100916.56;5019809;28;20037;-81
2022/04/04 10:06:45;;;;;;;39.88;18.02;;;;;;;5.53;76.32;100919.75;5019446;28;20022;-82
2022/04/04 10:09:10;;;;;;;39.65;18.20;;;;;;;5.55;76.29;100928.50;5021278;28;20311;-81
2022/04/04 10:11:40;;;;;;;40.63;18.85;;;;;;;5.51;77.81;100918.81;5020439;28;20021;-83
2022/04/04 10:14:06;;;;;;;44.28;19.17;;;;;;;5.51;77.06;100913.66;5022671;28;20057;-82
2022/04/04 10:16:33;;;;;;;44.10;18.95;;;;;;;5.52;77.38;100910.25;5025374;28;20071;-83
2022/04/04 10:18:59;;;;;;;46.83;19.45;;;;;;;5.52;78.31;100913.72;5022994;28;20266;-82
2022/04/04 10:21:26;;;;;;;42.75;17.98;;;;;;;5.53;78.96;100919.75;5023352;28;20026;-82
2022/04/04 10:23:57;;;;;;;46.67;20.10;;;;;;;5.52;78.82;100908.53;5024756;28;20048;-82
2022/04/04 10:26:29;;;;;;;44.42;19.58;;;;;;;5.52;79.35;100908.53;5021444;28;20017;-82
2022/04/04 10:29:14;;;;;;;49.47;19.83;;;;;;;5.53;79.36;100919.75;5025074;28;20021;-82
2022/04/04 10:31:57;;;;;;;50.58;20.20;;;;;;;5.52;79.35;100907.69;5025407;28;20030;-82
2022/04/04 10:34:25;;;;;;;48.33;18.98;;;;;;;5.54;79.63;100906.03;5019636;28;20307;-80
2022/04/04 10:37:02;;;;;;;47.67;19.50;;;;;;;5.50;80.40;100899.81;5026090;28;20030;-80
2022/04/04 10:39:48;;;;;;;47.08;19.75;;;;;;;5.50;79.99;100909.28;5015033;28;20109;-80
2022/04/04 10:42:36;;;;;;;50.45;20.02;;;;;;;5.50;80.82;100909.28;5023588;28;20033;-80
2022/04/04 10:45:06;;;;;;;52.00;21.08;;;;;;;5.45;82.46;100918.56;5024271;28;20037;-80
2022/04/04 10:47:34;;;;;;;52.72;21.20;;;;;;;5.43;82.48;100902.97;5021666;28;20022;-80
2022/04/04 10:50:21;;;;;;;55.55;22.88;;;;;;;5.41;82.64;100902.00;5021287;28;20228;-80
2022/04/04 10:52:46;;;;;;;54.75;21.50;;;;;;;5.40;83.65;100907.97;5023813;28;20044;-80
2022/04/04 10:55:27;;;;;;;52.55;21.05;;;;;;;5.42;83.82;100906.38;5021330;28;20172;-80
2022/04/04 10:58:15;;;;;;;48.03;20.83;;;;;;;5.39;83.43;100890.72;5017470;28;20033;-80
2022/04/04 11:01:17;;;;;;;46.03;17.80;;;;;;;5.42;83.16;100887.38;5019865;28;20026;-80
2022/04/04 11:03:48;;;;;;;36.42;16.63;;;;;;;5.43;84.67;100889.16;5011433;28;20617;-80
2022/04/04 11:09:18;;;;;;;35.97;15.80;;;;;;;5.42;84.30;100877.94;5025344;28;20025;-80
2022/04/04 11:11:54;;;;;;;31.83;16.42;;;;;;;5.42;86.02;100869.28;5018011;28;20261;-80
2022/04/04 11:14:28;;;;;;;30.70;15.40;;;;;;;5.36;85.62;100870.78;5022846;28;20029;-80
2022/04/04 11:17:06;;;;;;;28.00;13.82;;;;;;;5.39;85.41;100872.63;5023508;28;20026;-80
2022/04/04 11:19:47;;;;;;;24.88;13.15;;;;;;;5.37;85.51;100867.41;5023617;28;20030;-80
2022/04/04 11:22:17;;;;;;;24.35;12.70;;;;;;;5.33;86.10;100862.00;5022237;28;20026;-80
2022/04/04 11:24:43;;;;;;;23.80;12.85;;;;;;;5.34;85.57;100867.25;5024647;28;20326;-80
2022/04/04 11:27:10;;;;;;;22.45;12.55;;;;;;;5.33;85.71;100870.66;5024399;28;20030;-81
2022/04/04 11:29:38;;;;;;;21.33;12.48;;;;;;;5.27;86.85;100860.06;5024833;28;20021;-81